Time;durP1;ratioP1;P1;durP2;ratioP2;P2;SDS_P1;SDS_P2;PMS_P1;PMS_P2;Temp;Humidity;BMP_temperature;BMP_pressure;BME280_temperature;BME280_humidity;BME280_pressure;Samples;Min_cycle;Max_cycle;Signal;HPM_P1;HPM_P2
2021/12/31 00:00:11;;;;;;;399.50;154.73;;;;;;;;;;5035481;28;20105;-83
2021/12/31 00:02:37;;;;;;;400.70;156.77;;;;;;;;;;5035110;28;20029;-82
2021/12/31 00:05:04;;;;;;;374.70;151.17;;;;;;;;;;5034738;28;20061;-83
2021/12/31 00:07:30;;;;;;;380.67;150.83;;;;;;;;;;5035686;28;20097;-83
2021/12/31 00:10:00;;;;;;;376.63;150.57;;;;;;;;;;5017568;28;20036;-83
2021/12/31 00:12:30;;;;;;;391.37;153.07;;;;;;;;;;5017445;28;20392;-83
2021/12/31 00:14:58;;;;;;;379.33;149.53;;;;;;;;;;5035709;28;20021;-83
2021/12/31 00:17:25;;;;;;;431.40;164.63;;;;;;;;;;5035611;28;20036;-83
2021/12/31 00:20:16;;;;;;;439.83;163.10;;;;;;;;;;5017388;28;20052;-83
2021/12/31 00:22:59;;;;;;;385.80;152.97;;;;;;;;;;5033462;28;20469;-83
2021/12/31 00:25:26;;;;;;;396.50;154.03;;;;;;;;;;5033582;28;20030;-83
2021/12/31 00:27:52;;;;;;;402.90;162.80;;;;;;;;;;5027186;28;20277;-83
2021/12/31 00:30:19;;;;;;;435.97;174.27;;;;;;;;;;5001725;28;20037;-84
2021/12/31 00:32:45;;;;;;;444.17;169.07;;;;;;;;;;5034605;28;20029;-84
2021/12/31 00:35:12;;;;;;;413.70;173.87;;;;;;;;;;5034687;28;20080;-83
2021/12/31 00:37:38;;;;;;;405.27;160.17;;;;;;;;;;5037369;28;20026;-82
2021/12/31 00:40:09;;;;;;;448.33;168.70;;;;;;;;;;5035935;28;20022;-83
2021/12/31 00:42:35;;;;;;;395.27;158.37;;;;;;;;;;5034519;28;20025;-82
2021/12/31 00:45:02;;;;;;;468.20;172.07;;;;;;;;;;5016486;28;20029;-82
2021/12/31 00:47:28;;;;;;;464.30;173.37;;;;;;;;;;5033565;28;20056;-83
2021/12/31 00:49:54;;;;;;;492.80;180.10;;;;;;;;;;5034120;28;20017;-83
2021/12/31 00:52:20;;;;;;;439.97;169.57;;;;;;;;;;5032017;28;20479;-83
2021/12/31 00:54:47;;;;;;;419.77;165.73;;;;;;;;;;5034200;28;20470;-83
2021/12/31 00:57:13;;;;;;;435.57;179.83;;;;;;;;;;5033879;28;20079;-83
2021/12/31 00:59:40;;;;;;;493.07;187.50;;;;;;;;;;5008957;28;20025;-84
2021/12/31 01:02:12;;;;;;;484.47;190.93;;;;;;;;;;5019241;28;20053;-83
2021/12/31 01:04:39;;;;;;;455.87;184.23;;;;;;;;;;5029811;28;20092;-83
2021/12/31 01:07:05;;;;;;;407.63;172.20;;;;;;;;;;5031508;28;20017;-83
2021/12/31 01:09:32;;;;;;;409.10;170.13;;;;;;;;;;5016282;28;20037;-82
2021/12/31 01:12:01;;;;;;;404.03;171.77;;;;;;;;;;5034024;28;20121;-83
2021/12/31 01:17:06;;;;;;;394.10;171.83;;;;;;;;;;5033978;28;20021;-83
2021/12/31 01:19:46;;;;;;;425.77;169.53;;;;;;;;;;5015299;28;20481;-83
2021/12/31 01:22:16;;;;;;;404.90;156.50;;;;;;;;;;5037956;28;20021;-83
2021/12/31 01:24:42;;;;;;;426.60;170.27;;;;;;;;;;5046895;28;20026;-83
2021/12/31 01:27:09;;;;;;;397.40;165.13;;;;;;;;;;5044702;28;20032;-83
2021/12/31 01:29:36;;;;;;;393.20;152.17;;;;;;;;;;5038559;28;20052;-83
2021/12/31 01:32:03;;;;;;;405.00;163.17;;;;;;;;;;5014586;28;20409;-83
2021/12/31 01:34:29;;;;;;;434.27;172.80;;;;;;;;;;5010888;28;20053;-83
2021/12/31 01:36:55;;;;;;;424.23;163.83;;;;;;;;;;5016286;28;20029;-84
2021/12/31 01:39:21;;;;;;;385.90;163.90;;;;;;;;;;5015527;28;20025;-84
2021/12/31 01:41:48;;;;;;;398.23;160.97;;;;;;;;;;5015358;28;20307;-83
2021/12/31 01:44:14;;;;;;;450.47;171.37;;;;;;;;;;5009366;28;20412;-83
2021/12/31 01:47:09;;;;;;;427.27;165.93;;;;;;;;;;5013977;28;20029;-83
2021/12/31 01:49:38;;;;;;;401.93;165.47;;;;;;;;;;5022121;28;20030;-83
2021/12/31 01:52:05;;;;;;;392.07;166.00;;;;;;;;;;5025028;28;20380;-83
2021/12/31 01:54:32;;;;;;;429.73;171.83;;;;;;;;;;5017263;28;20476;-83
2021/12/31 01:57:01;;;;;;;406.50;160.53;;;;;;;;;;5032660;28;20029;-83
2021/12/31 01:59:28;;;;;;;437.33;171.53;;;;;;;;;;5028655;28;20039;-83
2021/12/31 02:01:55;;;;;;;403.80;157.47;;;;;;;;;;5032858;28;20029;-84
2021/12/31 02:04:22;;;;;;;432.80;169.20;;;;;;;;;;5012116;28;20026;-85
2021/12/31 02:06:49;;;;;;;441.53;167.07;;;;;;;;;;5011371;28;20060;-84
2021/12/31 02:09:15;;;;;;;402.07;158.30;;;;;;;;;;5032568;28;20446;-84
2021/12/31 02:11:46;;;;;;;462.77;176.37;;;;;;;;;;5031562;28;20086;-83
2021/12/31 02:14:13;;;;;;;450.73;167.63;;;;;;;;;;5033204;28;20036;-84
2021/12/31 02:16:40;;;;;;;447.53;170.67;;;;;;;;;;5033563;28;20032;-84
2021/12/31 02:19:13;;;;;;;503.67;176.90;;;;;;;;;;5031864;28;20080;-85
2021/12/31 02:21:43;;;;;;;512.33;181.93;;;;;;;;;;5032811;28;20105;-84
2021/12/31 02:24:10;;;;;;;472.73;176.90;;;;;;;;;;5023938;28;20140;-83
2021/12/31 02:26:36;;;;;;;509.20;184.37;;;;;;;;;;5010689;28;20030;-83
2021/12/31 02:29:03;;;;;;;574.60;203.77;;;;;;;;;;5005187;28;20083;-85
2021/12/31 02:31:30;;;;;;;537.47;189.07;;;;;;;;;;5022336;28;20048;-82
2021/12/31 02:33:56;;;;;;;585.77;202.17;;;;;;;;;;5009423;28;20088;-83
2021/12/31 02:36:24;;;;;;;585.33;199.77;;;;;;;;;;5024774;28;20022;-84
2021/12/31 02:38:50;;;;;;;538.23;188.83;;;;;;;;;;5005330;28;20037;-82
2021/12/31 02:41:16;;;;;;;543.57;188.63;;;;;;;;;;5009275;28;20026;-82
2021/12/31 02:43:43;;;;;;;563.10;197.50;;;;;;;;;;5023917;28;20054;-83
2021/12/31 02:46:09;;;;;;;515.10;185.87;;;;;;;;;;5028181;28;20112;-84
2021/12/31 02:48:36;;;;;;;599.57;213.17;;;;;;;;;;5006996;28;20025;-84
2021/12/31 02:51:03;;;;;;;556.77;199.23;;;;;;;;;;5006681;28;20030;-84
2021/12/31 02:53:39;;;;;;;553.93;198.50;;;;;;;;;;5008445;28;20484;-85
2021/12/31 02:56:07;;;;;;;531.77;193.50;;;;;;;;;;5024387;28;20540;-83
2021/12/31 02:58:34;;;;;;;510.43;193.43;;;;;;;;;;5025063;28;20040;-84
2021/12/31 03:01:00;;;;;;;482.57;184.33;;;;;;;;;;5024982;28;20025;-84
2021/12/31 03:03:28;;;;;;;487.07;184.60;;;;;;;;;;5022232;28;20040;-83
2021/12/31 03:05:55;;;;;;;451.17;170.67;;;;;;;;;;5027243;28;20526;-85
2021/12/31 03:08:22;;;;;;;457.73;174.63;;;;;;;;;;5003007;28;20061;-83
2021/12/31 03:10:49;;;;;;;474.10;177.00;;;;;;;;;;5007110;28;20099;-83
2021/12/31 03:13:17;;;;;;;458.47;178.87;;;;;;;;;;5004334;28;20038;-84
2021/12/31 03:15:45;;;;;;;412.53;165.53;;;;;;;;;;5021385;28;20068;-86
2021/12/31 03:18:12;;;;;;;393.83;158.43;;;;;;;;;;5026997;28;20049;-84
2021/12/31 03:20:56;;;;;;;423.53;163.90;;;;;;;;;;5007417;28;20022;-82
2021/12/31 03:23:23;;;;;;;418.53;163.20;;;;;;;;;;5029233;28;20064;-85
2021/12/31 03:25:49;;;;;;;373.53;153.20;;;;;;;;;;5028640;28;20039;-87
2021/12/31 03:28:15;;;;;;;360.73;153.30;;;;;;;;;;5032519;28;20457;-84
2021/12/31 03:30:41;;;;;;;353.00;150.03;;;;;;;;;;5028914;28;20503;-84
2021/12/31 03:33:08;;;;;;;350.67;150.77;;;;;;;;;;5029220;28;20084;-83
2021/12/31 03:35:34;;;;;;;346.03;149.53;;;;;;;;;;5029061;28;20492;-83
2021/12/31 03:38:00;;;;;;;350.57;149.00;;;;;;;;;;5011814;28;20033;-84
2021/12/31 03:40:27;;;;;;;325.53;147.90;;;;;;;;;;5023317;28;20025;-84
2021/12/31 03:42:54;;;;;;;322.30;145.53;;;;;;;;;;5029434;28;20424;-86
2021/12/31 03:45:21;;;;;;;327.77;145.90;;;;;;;;;;5028379;28;20034;-85
2021/12/31 03:47:47;;;;;;;311.77;141.37;;;;;;;;;;5029522;28;20053;-88
2021/12/31 03:50:13;;;;;;;292.93;135.40;;;;;;;;;;5029961;28;20029;-83
2021/12/31 03:52:40;;;;;;;306.57;142.13;;;;;;;;;;5011688;28;20037;-86
2021/12/31 03:55:08;;;;;;;303.50;138.60;;;;;;;;;;5029132;28;20017;-84
2021/12/31 03:57:35;;;;;;;285.20;133.67;;;;;;;;;;5033785;28;20084;-85
2021/12/31 04:00:01;;;;;;;306.97;140.77;;;;;;;;;;5012873;28;20025;-83
2021/12/31 04:02:27;;;;;;;304.27;144.53;;;;;;;;;;5030112;28;20051;-86
2021/12/31 04:04:54;;;;;;;292.50;145.90;;;;;;;;;;5027212;28;20064;-84
2021/12/31 04:07:21;;;;;;;291.33;144.70;;;;;;;;;;5025083;28;21207;-84
2021/12/31 04:09:48;;;;;;;290.53;147.27;;;;;;;;;;5024394;28;20473;-84
2021/12/31 04:12:14;;;;;;;294.90;144.33;;;;;;;;;;5030633;28;20068;-84
2021/12/31 04:14:40;;;;;;;282.60;146.40;;;;;;;;;;5031029;28;20030;-87
2021/12/31 04:17:06;;;;;;;291.17;145.67;;;;;;;;;;5009163;28;20026;-83
2021/12/31 04:19:33;;;;;;;301.43;147.47;;;;;;;;;;5026682;28;20045;-86
2021/12/31 04:22:00;;;;;;;279.87;136.70;;;;;;;;;;5030952;28;20017;-85
2021/12/31 04:24:52;;;;;;;270.30;139.43;;;;;;;;;;5022702;28;20028;-83
2021/12/31 04:27:16;;;;;;;268.67;140.03;;;;;;;;;;5025423;28;20480;-84
2021/12/31 04:29:50;;;;;;;284.03;142.87;;;;;;;;;;5026985;28;20033;-85
2021/12/31 04:32:16;;;;;;;290.60;147.90;;;;;;;;;;5004834;28;20037;-85
2021/12/31 04:34:43;;;;;;;293.17;149.40;;;;;;;;;;5008164;28;20452;-85
2021/12/31 04:37:09;;;;;;;282.47;146.40;;;;;;;;;;5021367;28;20038;-85
2021/12/31 04:39:35;;;;;;;288.90;148.63;;;;;;;;;;5023027;28;20052;-83
2021/12/31 04:42:02;;;;;;;298.90;154.20;;;;;;;;;;5029711;28;20116;-84
2021/12/31 04:44:29;;;;;;;299.33;157.93;;;;;;;;;;5010389;28;20116;-84
2021/12/31 04:46:55;;;;;;;308.20;157.50;;;;;;;;;;5008429;28;20026;-84
2021/12/31 04:49:22;;;;;;;296.77;155.67;;;;;;;;;;5020818;28;20455;-84
2021/12/31 04:51:48;;;;;;;303.17;156.77;;;;;;;;;;5026506;28;20025;-84
2021/12/31 04:54:16;;;;;;;309.27;162.70;;;;;;;;;;5010043;28;20045;-84
2021/12/31 04:56:45;;;;;;;303.57;156.97;;;;;;;;;;5008552;28;20040;-84
2021/12/31 04:59:11;;;;;;;296.67;159.03;;;;;;;;;;5022116;28;20076;-83
2021/12/31 05:01:41;;;;;;;297.83;157.47;;;;;;;;;;5027310;28;20051;-88
2021/12/31 05:04:08;;;;;;;296.00;155.67;;;;;;;;;;5013419;28;20511;-85
2021/12/31 05:06:34;;;;;;;304.83;164.80;;;;;;;;;;5015575;28;20021;-86
2021/12/31 05:09:01;;;;;;;296.40;160.27;;;;;;;;;;5029692;28;20479;-84
2021/12/31 05:11:27;;;;;;;295.17;157.17;;;;;;;;;;5024098;28;20370;-84
2021/12/31 05:13:53;;;;;;;294.23;161.77;;;;;;;;;;5024451;28;20044;-84
2021/12/31 05:16:21;;;;;;;291.92;157.75;;;;;;;;;;5014865;28;20120;-85
2021/12/31 05:18:47;;;;;;;304.23;170.40;;;;;;;;;;5025559;28;20054;-85
2021/12/31 05:21:17;;;;;;;293.83;163.30;;;;;;;;;;5028690;28;20057;-85
2021/12/31 05:23:43;;;;;;;290.38;156.77;;;;;;;;;;5005160;28;20021;-84
2021/12/31 05:26:09;;;;;;;287.70;160.95;;;;;;;;;;5006970;28;20457;-84
2021/12/31 05:28:36;;;;;;;304.13;161.68;;;;;;;;;;5006511;28;20041;-84
2021/12/31 05:31:03;;;;;;;285.67;156.90;;;;;;;;;;5024656;28;20025;-84
2021/12/31 05:33:30;;;;;;;280.40;154.27;;;;;;;;;;5021404;28;20144;-84
2021/12/31 05:36:00;;;;;;;287.05;157.68;;;;;;;;;;5006100;28;20530;-85
2021/12/31 05:38:26;;;;;;;295.08;167.48;;;;;;;;;;5006800;28;20041;-85
2021/12/31 05:40:53;;;;;;;302.35;169.43;;;;;;;;;;5023898;28;20400;-85
2021/12/31 05:43:19;;;;;;;298.65;168.43;;;;;;;;;;5027419;28;20059;-84
2021/12/31 05:45:46;;;;;;;307.67;173.77;;;;;;;;;;5011255;28;20029;-85
2021/12/31 05:48:12;;;;;;;297.10;177.52;;;;;;;;;;5008932;28;20033;-85
2021/12/31 05:50:38;;;;;;;312.33;186.13;;;;;;;;;;5007797;28;20029;-85
2021/12/31 05:53:08;;;;;;;293.23;177.43;;;;;;;;;;5031436;28;20029;-84
2021/12/31 05:55:34;;;;;;;296.75;182.07;;;;;;;;;;5004753;28;20033;-83
2021/12/31 05:58:02;;;;;;;308.33;183.02;;;;;;;;;;5004582;28;20041;-87
2021/12/31 06:00:29;;;;;;;299.02;181.90;;;;;;;;;;5027081;28;20021;-84
2021/12/31 06:02:59;;;;;;;307.05;184.77;;;;;;;;;;5012941;28;20030;-84
2021/12/31 06:05:27;;;;;;;311.58;190.32;;;;;;;;;;5013523;28;20033;-83
2021/12/31 06:07:55;;;;;;;306.55;181.70;;;;;;;;;;5007621;28;20095;-83
2021/12/31 06:10:22;;;;;;;311.05;181.30;;;;;;;;;;5011979;28;20437;-84
2021/12/31 06:12:50;;;;;;;283.42;177.98;;;;;;;;;;5007117;28;20028;-83
2021/12/31 06:15:18;;;;;;;312.60;185.40;;;;;;;;;;5006819;28;20025;-83
2021/12/31 06:17:45;;;;;;;302.95;179.60;;;;;;;;;;5007955;28;20025;-85
2021/12/31 06:20:11;;;;;;;301.98;182.40;;;;;;;;;;5027384;28;20080;-84
2021/12/31 06:22:38;;;;;;;294.52;184.25;;;;;;;;;;5011317;28;20033;-85
2021/12/31 06:25:05;;;;;;;295.70;184.48;;;;;;;;;;5012213;28;20060;-84
2021/12/31 06:27:31;;;;;;;292.95;187.20;;;;;;;;;;5027338;28;20025;-84
2021/12/31 06:29:57;;;;;;;295.65;180.13;;;;;;;;;;5008379;28;20476;-84
2021/12/31 06:32:23;;;;;;;305.45;186.00;;;;;;;;;;5009778;28;20029;-83
2021/12/31 06:34:50;;;;;;;293.35;182.75;;;;;;;;;;5029140;28;20053;-83
2021/12/31 06:37:16;;;;;;;310.30;182.77;;;;;;;;;;5013778;28;20116;-83
2021/12/31 06:39:46;;;;;;;292.20;187.18;;;;;;;;;;5029711;28;20034;-83
2021/12/31 06:42:15;;;;;;;301.80;183.73;;;;;;;;;;5035901;28;20022;-88
2021/12/31 06:44:41;;;;;;;296.92;182.15;;;;;;;;;;5013508;28;20683;-82
2021/12/31 06:47:08;;;;;;;297.38;183.70;;;;;;;;;;5006542;28;20032;-85
2021/12/31 06:49:34;;;;;;;294.58;174.43;;;;;;;;;;5022966;28;20037;-84
2021/12/31 06:52:00;;;;;;;281.10;170.73;;;;;;;;;;5005683;28;20037;-83
2021/12/31 06:54:26;;;;;;;284.23;170.50;;;;;;;;;;5006367;28;20412;-83
2021/12/31 06:56:53;;;;;;;262.60;162.68;;;;;;;;;;5005046;28;20064;-85
2021/12/31 06:59:19;;;;;;;267.92;162.95;;;;;;;;;;5008425;28;20041;-83
2021/12/31 07:01:46;;;;;;;258.95;155.82;;;;;;;;;;5024872;28;20032;-85
2021/12/31 07:04:12;;;;;;;259.77;161.18;;;;;;;;;;5025041;28;20053;-84
2021/12/31 07:06:38;;;;;;;263.60;166.13;;;;;;;;;;5021192;28;20032;-82
2021/12/31 07:09:07;;;;;;;281.25;170.02;;;;;;;;;;5025661;28;20037;-83
2021/12/31 07:11:34;;;;;;;264.63;168.00;;;;;;;;;;5027101;28;21254;-83
2021/12/31 07:14:00;;;;;;;268.33;170.93;;;;;;;;;;5033436;28;20030;-85
2021/12/31 07:16:26;;;;;;;261.02;164.55;;;;;;;;;;5030159;28;20113;-84
2021/12/31 07:18:53;;;;;;;258.50;168.60;;;;;;;;;;5033554;28;20053;-85
2021/12/31 07:21:19;;;;;;;216.48;142.13;;;;;;;;;;5008298;28;20131;-84
2021/12/31 07:23:45;;;;;;;230.23;144.52;;;;;;;;;;5025982;28;20831;-86
2021/12/31 07:26:11;;;;;;;237.98;145.25;;;;;;;;;;5027041;28;20037;-84
2021/12/31 07:28:38;;;;;;;231.10;141.50;;;;;;;;;;5012257;28;20033;-83
2021/12/31 07:31:06;;;;;;;215.27;137.95;;;;;;;;;;5029071;28;20033;-86
2021/12/31 07:33:33;;;;;;;239.77;142.40;;;;;;;;;;5008623;28;20370;-84
2021/12/31 07:36:00;;;;;;;253.55;158.82;;;;;;;;;;5028515;28;20065;-84
2021/12/31 07:38:38;;;;;;;287.40;182.07;;;;;;;;;;5029242;28;20017;-84
2021/12/31 07:41:05;;;;;;;288.98;181.27;;;;;;;;;;5028761;28;20034;-86
2021/12/31 07:43:31;;;;;;;289.85;191.18;;;;;;;;;;5015160;28;20112;-84
2021/12/31 07:45:57;;;;;;;300.60;196.73;;;;;;;;;;5012448;28;20025;-84
2021/12/31 07:48:24;;;;;;;300.25;199.45;;;;;;;;;;5030328;28;20036;-84
2021/12/31 07:50:50;;;;;;;312.85;194.27;;;;;;;;;;5006359;28;20108;-85
2021/12/31 07:53:17;;;;;;;316.48;206.23;;;;;;;;;;5002908;28;20608;-85
2021/12/31 07:55:44;;;;;;;282.45;179.13;;;;;;;;;;5025314;28;20045;-85
2021/12/31 07:58:10;;;;;;;293.17;193.75;;;;;;;;;;5008964;28;20105;-85
2021/12/31 08:00:37;;;;;;;328.27;219.45;;;;;;;;;;5025995;28;20025;-84
2021/12/31 08:03:04;;;;;;;318.40;217.02;;;;;;;;;;5026810;28;20033;-84
2021/12/31 08:05:31;;;;;;;340.33;224.52;;;;;;;;;;5026721;28;20026;-85
2021/12/31 08:08:00;;;;;;;341.90;223.05;;;;;;;;;;5026119;28;20586;-84
2021/12/31 08:10:26;;;;;;;358.35;238.13;;;;;;;;;;5024189;28;20018;-84
2021/12/31 08:12:53;;;;;;;353.50;246.77;;;;;;;;;;5026371;28;20022;-84
2021/12/31 08:15:19;;;;;;;353.30;233.13;;;;;;;;;;5006779;28;20477;-84
2021/12/31 08:17:45;;;;;;;350.70;233.48;;;;;;;;;;5029310;28;20040;-84
2021/12/31 08:20:12;;;;;;;343.75;235.07;;;;;;;;;;5010885;28;20049;-84
2021/12/31 08:22:39;;;;;;;340.35;230.63;;;;;;;;;;5010741;28;20049;-84
2021/12/31 08:25:06;;;;;;;330.90;222.20;;;;;;;;;;5026101;28;20491;-84
2021/12/31 08:27:32;;;;;;;341.95;228.80;;;;;;;;;;5024602;28;20079;-85
2021/12/31 08:29:59;;;;;;;328.88;223.75;;;;;;;;;;5027237;28;20025;-82
2021/12/31 08:32:25;;;;;;;360.88;241.70;;;;;;;;;;5033774;28;20088;-84
2021/12/31 08:34:51;;;;;;;345.67;244.13;;;;;;;;;;5039004;28;20025;-85
2021/12/31 08:37:18;;;;;;;353.23;241.50;;;;;;;;;;5017919;28;20052;-84
2021/12/31 08:39:44;;;;;;;343.65;234.35;;;;;;;;;;5033887;28;20104;-84
2021/12/31 08:42:10;;;;;;;337.67;233.70;;;;;;;;;;5021494;28;20149;-84
2021/12/31 08:44:36;;;;;;;349.10;237.32;;;;;;;;;;5020293;28;20065;-84
2021/12/31 08:47:03;;;;;;;355.98;238.18;;;;;;;;;;5035321;28;20040;-85
2021/12/31 08:49:29;;;;;;;358.40;240.93;;;;;;;;;;5015733;28;20029;-85
2021/12/31 08:51:56;;;;;;;341.63;224.63;;;;;;;;;;5016156;28;20125;-84
2021/12/31 08:54:22;;;;;;;333.52;231.52;;;;;;;;;;5019645;28;20026;-84
2021/12/31 08:56:48;;;;;;;345.90;228.88;;;;;;;;;;5027398;28;20068;-84
2021/12/31 08:59:15;;;;;;;338.77;227.65;;;;;;;;;;5026250;28;20072;-84
2021/12/31 09:01:42;;;;;;;341.23;230.02;;;;;;;;;;5028131;28;20175;-84
2021/12/31 09:04:08;;;;;;;328.45;223.93;;;;;;;;;;5008091;28;20321;-86
2021/12/31 09:06:34;;;;;;;323.42;221.70;;;;;;;;;;5024125;28;20018;-86
2021/12/31 09:09:00;;;;;;;333.27;230.88;;;;;;;;;;5003721;28;20501;-85
2021/12/31 09:11:27;;;;;;;319.55;219.52;;;;;;;;;;5019231;28;20508;-85
2021/12/31 09:13:55;;;;;;;321.35;217.40;;;;;;;;;;5021949;28;20076;-85
2021/12/31 09:16:21;;;;;;;311.25;215.23;;;;;;;;;;5007638;28;20033;-82
2021/12/31 09:18:48;;;;;;;311.75;214.35;;;;;;;;;;5018481;28;20444;-84
2021/12/31 09:21:17;;;;;;;315.52;218.65;;;;;;;;;;5005986;28;20473;-84
2021/12/31 09:23:45;;;;;;;305.55;210.57;;;;;;;;;;5025565;28;20067;-85
2021/12/31 09:26:11;;;;;;;310.48;214.70;;;;;;;;;;5026789;28;20030;-86
2021/12/31 09:28:37;;;;;;;303.67;206.05;;;;;;;;;;5025702;28;20033;-87
2021/12/31 09:31:07;;;;;;;304.70;212.20;;;;;;;;;;5025244;28;20029;-86
2021/12/31 09:33:33;;;;;;;312.63;213.18;;;;;;;;;;5027916;28;20061;-85
2021/12/31 09:35:59;;;;;;;317.27;218.70;;;;;;;;;;5026048;28;20026;-85
2021/12/31 09:38:26;;;;;;;304.90;217.20;;;;;;;;;;5027940;28;20040;-87
2021/12/31 09:40:52;;;;;;;302.60;206.48;;;;;;;;;;5006687;28;20072;-84
2021/12/31 09:43:19;;;;;;;303.13;210.60;;;;;;;;;;5027198;28;20057;-83
2021/12/31 09:45:47;;;;;;;305.77;206.82;;;;;;;;;;5031854;28;20087;-84
2021/12/31 09:48:15;;;;;;;297.13;206.40;;;;;;;;;;5008174;28;20393;-87
2021/12/31 09:50:42;;;;;;;308.02;205.70;;;;;;;;;;5026162;28;20087;-85
2021/12/31 09:53:10;;;;;;;292.98;201.27;;;;;;;;;;5009750;28;20026;-84
2021/12/31 09:55:39;;;;;;;286.92;197.68;;;;;;;;;;5029381;28;20025;-84
2021/12/31 09:58:06;;;;;;;304.20;203.07;;;;;;;;;;5011513;28;20080;-85
2021/12/31 10:00:32;;;;;;;307.02;207.93;;;;;;;;;;5012818;28;20025;-84
2021/12/31 10:03:12;;;;;;;306.98;213.55;;;;;;;;;;5030629;28;20025;-84
2021/12/31 10:05:43;;;;;;;316.33;221.65;;;;;;;;;;5030538;28;20083;-84
2021/12/31 10:08:22;;;;;;;330.65;224.15;;;;;;;;;;5004065;28;20492;-85
2021/12/31 10:11:04;;;;;;;332.30;228.05;;;;;;;;;;5029161;28;20025;-84
2021/12/31 10:13:31;;;;;;;364.05;253.80;;;;;;;;;;5004064;28;20054;-83
2021/12/31 10:15:58;;;;;;;365.02;263.40;;;;;;;;;;5027156;28;20068;-84
2021/12/31 10:18:30;;;;;;;377.77;261.33;;;;;;;;;;5008885;28;20111;-84
2021/12/31 10:20:56;;;;;;;390.98;268.05;;;;;;;;;;5022858;28;20061;-85
2021/12/31 10:23:23;;;;;;;393.75;270.55;;;;;;;;;;5025255;28;20018;-85
2021/12/31 10:25:49;;;;;;;421.08;288.58;;;;;;;;;;5013670;28;20017;-85
2021/12/31 10:28:16;;;;;;;429.27;297.13;;;;;;;;;;5025341;28;20489;-85
2021/12/31 10:30:44;;;;;;;433.20;302.73;;;;;;;;;;5027549;28;20391;-85
2021/12/31 10:33:10;;;;;;;430.00;300.92;;;;;;;;;;5012929;28;20373;-85
2021/12/31 10:35:44;;;;;;;449.13;314.90;;;;;;;;;;5026587;28;20022;-85
2021/12/31 10:38:13;;;;;;;444.92;311.33;;;;;;;;;;5031049;28;20037;-83
2021/12/31 10:40:41;;;;;;;472.40;318.83;;;;;;;;;;5013024;28;20025;-85
2021/12/31 10:43:09;;;;;;;477.65;328.67;;;;;;;;;;5030364;28;20029;-85
2021/12/31 10:45:35;;;;;;;489.55;337.20;;;;;;;;;;5012781;28;20481;-83
2021/12/31 10:48:06;;;;;;;513.15;351.25;;;;;;;;;;5031435;28;20037;-85
2021/12/31 10:50:32;;;;;;;497.15;339.83;;;;;;;;;;5030971;28;20617;-85
2021/12/31 10:53:02;;;;;;;511.85;350.10;;;;;;;;;;5030796;28;20033;-84
2021/12/31 10:55:30;;;;;;;512.33;343.42;;;;;;;;;;5026026;28;20034;-85
2021/12/31 10:57:58;;;;;;;513.17;350.60;;;;;;;;;;5031311;28;20120;-84
2021/12/31 11:00:25;;;;;;;509.35;347.58;;;;;;;;;;5031335;28;20057;-84
2021/12/31 11:02:51;;;;;;;523.65;354.50;;;;;;;;;;5031400;28;20033;-84
2021/12/31 11:05:20;;;;;;;531.72;363.25;;;;;;;;;;5013012;28;20116;-85
2021/12/31 11:07:46;;;;;;;544.58;367.70;;;;;;;;;;5013453;28;20075;-85
2021/12/31 11:10:13;;;;;;;545.80;378.17;;;;;;;;;;5026325;28;20167;-84
2021/12/31 11:12:43;;;;;;;569.75;392.05;;;;;;;;;;5025280;28;20036;-84
2021/12/31 11:15:10;;;;;;;567.83;389.13;;;;;;;;;;5026863;28;20029;-84
2021/12/31 11:17:37;;;;;;;572.50;394.00;;;;;;;;;;5014532;28;20029;-84
2021/12/31 11:20:05;;;;;;;571.20;394.60;;;;;;;;;;5014692;28;20044;-83
2021/12/31 11:22:32;;;;;;;569.20;399.13;;;;;;;;;;5033087;28;20045;-83
2021/12/31 11:25:17;;;;;;;599.63;403.23;;;;;;;;;;5015724;28;20417;-82
2021/12/31 11:27:45;;;;;;;587.63;395.27;;;;;;;;;;5034134;28;20017;-83
2021/12/31 11:30:30;;;;;;;596.95;407.08;;;;;;;;;;5017500;28;20064;-83
2021/12/31 11:33:00;;;;;;;595.00;406.52;;;;;;;;;;5032126;28;20053;-84
2021/12/31 11:35:37;;;;;;;594.22;405.20;;;;;;;;;;5032402;28;20060;-84
2021/12/31 11:38:42;;;;;;;584.58;400.50;;;;;;;;;;5031936;28;20024;-83
2021/12/31 11:41:11;;;;;;;573.25;392.45;;;;;;;;;;5027424;28;20030;-82
2021/12/31 11:43:38;;;;;;;588.60;399.55;;;;;;;;;;5026237;28;20026;-84
2021/12/31 11:46:11;;;;;;;569.65;382.40;;;;;;;;;;5012266;28;20030;-84
2021/12/31 11:48:49;;;;;;;556.67;370.70;;;;;;;;;;5024082;28;20105;-84
2021/12/31 11:51:26;;;;;;;517.85;341.85;;;;;;;;;;5034928;28;20029;-83
2021/12/31 11:53:58;;;;;;;503.92;336.17;;;;;;;;;;5035252;28;20025;-83
2021/12/31 11:56:37;;;;;;;495.15;326.83;;;;;;;;;;5017806;28;20021;-84
2021/12/31 11:59:06;;;;;;;486.17;325.50;;;;;;;;;;5035551;28;20052;-83
2021/12/31 12:01:48;;;;;;;480.90;309.42;;;;;;;;;;5034281;28;20026;-83
2021/12/31 12:04:18;;;;;;;427.60;273.85;;;;;;;;;;5020077;28;20017;-84
2021/12/31 12:06:53;;;;;;;406.83;263.13;;;;;;;;;;5010683;28;20064;-84
2021/12/31 12:09:19;;;;;;;389.33;251.48;;;;;;;;;;5044230;28;20049;-83
2021/12/31 12:12:03;;;;;;;384.30;248.23;;;;;;;;;;5022144;28;20029;-83
2021/12/31 12:14:29;;;;;;;336.92;215.60;;;;;;;;;;5006081;28;20472;-83
2021/12/31 12:16:59;;;;;;;300.92;195.27;;;;;;;;;;5034836;28;20040;-84
2021/12/31 12:19:43;;;;;;;292.35;177.50;;;;;;;;;;5016820;28;20136;-84
2021/12/31 12:22:10;;;;;;;265.45;155.25;;;;;;;;;;5012775;28;20060;-83
2021/12/31 12:24:36;;;;;;;247.27;144.10;;;;;;;;;;5028144;28;20532;-84
2021/12/31 12:27:03;;;;;;;263.00;151.68;;;;;;;;;;5013603;28;20026;-84
2021/12/31 12:29:29;;;;;;;229.40;139.40;;;;;;;;;;5011673;28;20033;-84
2021/12/31 12:32:09;;;;;;;185.30;110.78;;;;;;;;;;5032640;28;20104;-84
2021/12/31 12:34:35;;;;;;;165.82;95.25;;;;;;;;;;5028096;28;20101;-84
2021/12/31 12:37:02;;;;;;;137.80;80.50;;;;;;;;;;5035428;28;20064;-84
2021/12/31 12:39:28;;;;;;;120.05;68.47;;;;;;;;;;5041551;28;20063;-82
2021/12/31 12:41:54;;;;;;;100.68;55.80;;;;;;;;;;5013792;28;20055;-84
2021/12/31 12:44:21;;;;;;;93.10;53.17;;;;;;;;;;5054156;28;20053;-83
2021/12/31 12:47:05;;;;;;;88.57;46.60;;;;;;;;;;5051705;28;20093;-82
2021/12/31 12:49:34;;;;;;;76.53;41.90;;;;;;;;;;5052423;28;20036;-82
2021/12/31 12:52:12;;;;;;;73.85;39.08;;;;;;;;;;5036040;28;20025;-84
2021/12/31 12:54:39;;;;;;;64.75;35.28;;;;;;;;;;5031460;28;20300;-84
2021/12/31 12:57:05;;;;;;;62.13;33.83;;;;;;;;;;5027570;28;20049;-83
2021/12/31 12:59:31;;;;;;;56.25;29.95;;;;;;;;;;5015710;28;20038;-83
2021/12/31 13:01:58;;;;;;;52.80;28.48;;;;;;;;;;5011774;28;20036;-83
2021/12/31 13:04:27;;;;;;;62.00;30.98;;;;;;;;;;5026244;28;20029;-83
2021/12/31 13:06:57;;;;;;;59.13;31.15;;;;;;;;;;5030177;28;20465;-83
2021/12/31 13:09:23;;;;;;;53.40;30.65;;;;;;;;;;5025658;28;20483;-83
2021/12/31 13:11:59;;;;;;;53.08;28.95;;;;;;;;;;5013798;28;20056;-84
2021/12/31 13:14:29;;;;;;;54.92;27.80;;;;;;;;;;5011968;28;20389;-84
2021/12/31 13:16:57;;;;;;;58.25;30.92;;;;;;;;;;5013884;28;20053;-83
2021/12/31 13:19:37;;;;;;;59.78;28.90;;;;;;;;;;5026077;28;20040;-83
2021/12/31 13:22:05;;;;;;;59.22;29.95;;;;;;;;;;5010963;28;20481;-85
2021/12/31 13:24:32;;;;;;;50.85;24.80;;;;;;;;;;5012881;28;20245;-84
2021/12/31 13:27:03;;;;;;;48.38;26.50;;;;;;;;;;5031948;28;20033;-84
2021/12/31 13:29:35;;;;;;;44.92;23.73;;;;;;;;;;5012861;28;20380;-84
2021/12/31 13:32:11;;;;;;;39.90;20.73;;;;;;;;;;5014866;28;20034;-84
2021/12/31 13:34:48;;;;;;;45.90;20.08;;;;;;;;;;5032581;28;20152;-85
2021/12/31 13:37:33;;;;;;;44.78;20.85;;;;;;;;;;5032765;28;20021;-85
2021/12/31 13:40:19;;;;;;;37.25;20.45;;;;;;;;;;5032152;28;20476;-83
2021/12/31 13:42:58;;;;;;;39.38;20.23;;;;;;;;;;5031697;28;20487;-83
2021/12/31 13:45:25;;;;;;;37.95;20.13;;;;;;;;;;5030414;28;20036;-84
2021/12/31 13:47:53;;;;;;;42.25;21.52;;;;;;;;;;5027848;28;20025;-84
2021/12/31 13:50:21;;;;;;;43.92;21.80;;;;;;;;;;5013666;28;20384;-82
2021/12/31 13:52:56;;;;;;;42.25;22.23;;;;;;;;;;5031253;28;20018;-84
2021/12/31 13:55:23;;;;;;;43.33;21.65;;;;;;;;;;5031532;28;20025;-84
2021/12/31 13:58:02;;;;;;;46.83;24.75;;;;;;;;;;5010996;28;20026;-83
2021/12/31 14:00:32;;;;;;;47.17;21.55;;;;;;;;;;5013605;28;20506;-82
2021/12/31 14:03:09;;;;;;;43.28;21.13;;;;;;;;;;5031486;28;20021;-83